createdAt,value
2019-03-09T00:00:36.952Z,54.18
2019-03-09T00:03:05.439Z,54.14
2019-03-09T00:05:33.942Z,54.67
2019-03-09T00:08:02.420Z,54.69
2019-03-09T00:10:30.926Z,54.61
2019-03-09T00:12:59.402Z,54.79
2019-03-09T00:15:27.888Z,54.58
2019-03-09T00:17:56.359Z,55.09
2019-03-09T00:20:24.875Z,55.71
2019-03-09T00:23:11.156Z,55.97
2019-03-09T00:25:41.492Z,55.54
2019-03-09T00:28:14.590Z,55.96
2019-03-09T00:30:47.638Z,56.28
2019-03-09T00:33:16.128Z,56.19
2019-03-09T00:35:44.591Z,56.40
2019-03-09T00:38:13.089Z,56.10
2019-03-09T00:40:41.538Z,55.94
2019-03-09T00:43:10.020Z,55.85
2019-03-09T00:45:38.487Z,57.48
2019-03-09T00:48:06.973Z,58.10
2019-03-09T00:50:35.725Z,58.74
2019-03-09T00:53:04.292Z,59.71
2019-03-09T00:55:32.761Z,58.94
2019-03-09T00:58:01.266Z,59.17
2019-03-09T01:00:29.768Z,59.87
2019-03-09T01:02:58.237Z,61.47
2019-03-09T01:05:26.803Z,62.21
2019-03-09T01:07:55.329Z,62.61
2019-03-09T01:10:23.882Z,62.72
2019-03-09T01:12:52.387Z,62.61
2019-03-09T01:15:20.852Z,62.87
2019-03-09T01:17:49.423Z,63.68
2019-03-09T01:20:17.957Z,63.84
2019-03-09T01:22:46.443Z,63.42
2019-03-09T01:25:15.186Z,63.59
2019-03-09T01:27:43.714Z,64.04
2019-03-09T01:30:15.242Z,63.97
2019-03-09T01:32:43.791Z,63.43
2019-03-09T01:35:12.341Z,64.00
2019-03-09T01:37:41.139Z,63.87
2019-03-09T01:40:14.944Z,63.80
2019-03-09T01:42:43.628Z,62.83
2019-03-09T01:45:16.421Z,62.65
2019-03-09T01:47:45.170Z,63.54
2019-03-09T01:50:13.778Z,63.76
2019-03-09T01:52:42.315Z,62.82
2019-03-09T01:55:12.696Z,62.56
2019-03-09T01:57:41.163Z,63.18
2019-03-09T02:00:12.695Z,64.74
2019-03-09T02:02:41.218Z,65.46
2019-03-09T02:05:10.123Z,66.10
2019-03-09T02:07:38.953Z,65.38
2019-03-09T02:10:10.031Z,66.04
2019-03-09T02:12:38.651Z,65.36
2019-03-09T02:15:09.667Z,65.29
2019-03-09T02:17:38.222Z,64.83
2019-03-09T02:20:09.897Z,64.60
2019-03-09T02:22:38.374Z,65.25
2019-03-09T02:25:08.323Z,65.09
2019-03-09T02:27:36.882Z,64.64
2019-03-09T02:30:08.788Z,64.40
2019-03-09T02:32:36.566Z,63.32
2019-03-09T02:35:08.220Z,63.30
2019-03-09T02:37:36.688Z,63.29
2019-03-09T02:40:09.467Z,63.03
2019-03-09T02:42:37.928Z,64.01
2019-03-09T02:45:11.887Z,63.49
2019-03-09T02:47:40.353Z,63.70
2019-03-09T02:50:11.888Z,63.49
2019-03-09T02:52:40.387Z,63.77
2019-03-09T02:55:10.234Z,64.19
2019-03-09T02:57:38.796Z,65.48
2019-03-09T03:00:10.520Z,65.72
2019-03-09T03:02:40.631Z,65.68
2019-03-09T03:05:09.359Z,66.23
2019-03-09T03:07:37.851Z,66.02
2019-03-09T03:10:08.754Z,65.61
2019-03-09T03:12:37.290Z,64.60
2019-03-09T03:15:08.550Z,64.82
2019-03-09T03:17:37.015Z,64.16
2019-03-09T03:20:07.437Z,63.63
2019-03-09T03:22:35.914Z,62.88
2019-03-09T03:25:06.046Z,61.15
2019-03-09T03:27:34.546Z,60.09
2019-03-09T03:30:03.200Z,59.94
2019-03-09T03:32:33.275Z,61.53
2019-03-09T03:35:01.766Z,60.69
2019-03-09T03:37:30.229Z,59.50
2019-03-09T03:39:58.690Z,60.51
2019-03-09T03:42:27.168Z,60.81
2019-03-09T03:44:55.628Z,59.70
2019-03-09T03:47:24.131Z,60.87
2019-03-09T03:49:52.624Z,59.87
2019-03-09T03:52:21.094Z,60.29
2019-03-09T03:54:49.569Z,59.78
2019-03-09T03:57:18.184Z,60.96
2019-03-09T03:59:46.898Z,59.77
2019-03-09T04:02:15.494Z,60.41
2019-03-09T04:04:44.035Z,60.23
2019-03-09T04:07:12.686Z,60.16
2019-03-09T04:09:41.467Z,60.06
2019-03-09T04:12:09.923Z,59.71
2019-03-09T04:14:38.478Z,60.12
2019-03-09T04:17:06.982Z,60.52
2019-03-09T04:19:35.453Z,60.05
2019-03-09T04:22:03.921Z,60.50
2019-03-09T04:24:32.422Z,61.43
2019-03-09T04:27:00.921Z,62.54
2019-03-09T04:29:29.473Z,62.83
2019-03-09T04:31:58.020Z,62.32
2019-03-09T04:34:26.489Z,61.99
2019-03-09T04:37:01.028Z,62.23
2019-03-09T04:39:29.504Z,62.25
2019-03-09T04:41:58.067Z,63.39
2019-03-09T04:44:27.341Z,62.59
2019-03-09T04:46:55.895Z,63.40
2019-03-09T04:49:24.374Z,62.72
2019-03-09T04:51:52.834Z,62.47
2019-03-09T04:54:21.329Z,61.57
2019-03-09T04:56:49.796Z,61.01
2019-03-09T04:59:18.268Z,59.85
2019-03-09T05:01:46.731Z,60.20
2019-03-09T05:04:26.579Z,60.40
2019-03-09T05:06:55.067Z,60.25
2019-03-09T05:09:49.216Z,60.81
2019-03-09T05:12:17.716Z,61.42
2019-03-09T05:14:46.177Z,61.28
2019-03-09T05:17:14.682Z,62.06
2019-03-09T05:19:43.154Z,62.17
2019-03-09T05:22:11.653Z,61.98
2019-03-09T05:24:40.117Z,63.40
2019-03-09T05:27:08.598Z,64.74
2019-03-09T05:29:37.077Z,65.22
2019-03-09T05:32:05.649Z,64.61
2019-03-09T05:34:34.126Z,64.00
2019-03-09T05:37:02.624Z,64.58
2019-03-09T05:39:31.164Z,64.28
2019-03-09T05:41:59.761Z,63.78
2019-03-09T05:44:28.310Z,63.38
2019-03-09T05:46:56.862Z,63.40
2019-03-09T05:49:25.353Z,64.16
2019-03-09T05:52:19.589Z,64.00
2019-03-09T05:54:48.065Z,64.10
2019-03-09T05:57:16.579Z,63.27
2019-03-09T05:59:45.033Z,62.08
2019-03-09T06:02:13.498Z,62.68
2019-03-09T06:04:41.989Z,62.33
2019-03-09T06:07:10.453Z,62.66
2019-03-09T06:09:38.948Z,63.52
2019-03-09T06:12:07.421Z,63.61
2019-03-09T06:14:35.914Z,63.56
2019-03-09T06:17:04.447Z,63.09
2019-03-09T06:19:32.922Z,62.71
2019-03-09T06:22:01.386Z,61.21
2019-03-09T06:24:29.884Z,61.30
2019-03-09T06:26:58.379Z,61.45
2019-03-09T06:29:26.838Z,61.81
2019-03-09T06:32:33.469Z,61.33
2019-03-09T06:35:01.939Z,60.97
2019-03-09T06:37:32.166Z,61.58
2019-03-09T06:40:00.621Z,61.66
2019-03-09T06:42:32.457Z,62.04
2019-03-09T06:45:00.350Z,62.73
2019-03-09T06:47:28.864Z,62.26
2019-03-09T06:49:57.377Z,62.37
2019-03-09T06:52:26.438Z,62.34
2019-03-09T06:54:54.901Z,61.67
2019-03-09T06:57:23.503Z,62.34
2019-03-09T06:59:51.994Z,60.42
2019-03-09T07:02:20.455Z,60.96
2019-03-09T07:04:49.035Z,61.61
2019-03-09T07:07:17.498Z,61.49
2019-03-09T07:09:45.960Z,61.56
2019-03-09T07:12:14.462Z,61.22
2019-03-09T07:15:00.868Z,61.31
2019-03-09T07:17:29.359Z,62.80
2019-03-09T07:19:57.845Z,63.48
2019-03-09T07:22:26.312Z,62.81
2019-03-09T07:24:54.808Z,61.64
2019-03-09T07:27:23.270Z,62.36
2019-03-09T07:29:51.843Z,61.39
2019-03-09T07:32:20.303Z,59.70
2019-03-09T07:34:49.059Z,60.00
2019-03-09T07:37:17.524Z,59.92
2019-03-09T07:39:45.999Z,59.82
2019-03-09T07:42:14.499Z,59.64
2019-03-09T07:44:42.960Z,58.51
2019-03-09T07:47:11.433Z,57.69
2019-03-09T07:49:39.900Z,56.71
2019-03-09T07:52:35.245Z,57.21
2019-03-09T07:55:04.553Z,58.36
2019-03-09T07:57:33.044Z,57.43
2019-03-09T08:00:01.543Z,56.83
2019-03-09T08:02:30.008Z,56.24
2019-03-09T08:04:58.480Z,56.27
2019-03-09T08:07:26.960Z,56.76
2019-03-09T08:09:55.466Z,56.75
2019-03-09T08:12:24.276Z,56.37
2019-03-09T08:14:52.803Z,56.48
2019-03-09T08:17:21.307Z,55.25
2019-03-09T08:19:49.790Z,55.76
2019-03-09T08:22:18.386Z,55.07
2019-03-09T08:24:46.863Z,55.56
2019-03-09T08:27:15.330Z,55.31
2019-03-09T08:29:44.861Z,54.57
2019-03-09T08:32:13.359Z,55.12
2019-03-09T08:34:41.817Z,55.02
2019-03-09T08:37:10.290Z,54.44
2019-03-09T08:39:38.808Z,53.66
2019-03-09T08:42:07.563Z,53.17
2019-03-09T08:44:36.039Z,53.12
2019-03-09T08:47:05.835Z,52.93
2019-03-09T08:49:34.441Z,52.84
2019-03-09T08:52:02.914Z,52.88
2019-03-09T08:54:31.406Z,52.87
2019-03-09T08:56:59.915Z,53.11
2019-03-09T08:59:28.406Z,51.55
2019-03-09T09:01:56.868Z,51.84
2019-03-09T09:04:25.336Z,53.23
2019-03-09T09:06:53.815Z,53.48
2019-03-09T09:09:22.326Z,53.08
2019-03-09T09:11:50.791Z,52.59
2019-03-09T09:14:19.297Z,52.71
2019-03-09T09:16:47.805Z,53.31
2019-03-09T09:19:16.267Z,53.31
2019-03-09T09:21:44.772Z,52.49
2019-03-09T09:24:13.244Z,52.74
2019-03-09T09:26:41.759Z,52.08
2019-03-09T09:29:10.245Z,51.84
2019-03-09T09:31:38.726Z,52.39
2019-03-09T09:34:07.271Z,51.52
2019-03-09T09:36:36.023Z,50.73
2019-03-09T09:39:06.389Z,50.62
2019-03-09T09:41:34.853Z,49.96
2019-03-09T09:44:03.975Z,50.28
2019-03-09T09:46:32.621Z,50.18
2019-03-09T09:49:01.087Z,50.33
2019-03-09T09:51:29.584Z,48.93
2019-03-09T09:53:58.048Z,50.09
2019-03-09T09:56:26.525Z,49.92
2019-03-09T09:58:54.989Z,49.61
2019-03-09T10:01:23.487Z,49.72
2019-03-09T10:03:51.948Z,50.11
2019-03-09T10:06:20.413Z,49.80
2019-03-09T10:08:48.915Z,50.23
2019-03-09T10:11:17.401Z,50.10
2019-03-09T10:13:45.875Z,49.60
2019-03-09T10:16:15.542Z,50.38
2019-03-09T10:18:43.955Z,49.60
2019-03-09T10:21:12.463Z,49.62
2019-03-09T10:23:40.930Z,50.91
2019-03-09T10:26:09.395Z,50.54
2019-03-09T10:28:37.910Z,50.93
2019-03-09T10:31:06.405Z,51.45
2019-03-09T10:33:34.839Z,51.75
2019-03-09T10:36:03.324Z,52.06
2019-03-09T10:38:31.788Z,51.99
2019-03-09T10:41:00.300Z,52.15
2019-03-09T10:43:28.766Z,51.97
2019-03-09T10:45:57.339Z,51.68
2019-03-09T10:48:25.864Z,51.91
2019-03-09T10:50:54.345Z,52.02
2019-03-09T10:53:22.817Z,52.12
2019-03-09T10:55:51.287Z,52.10
2019-03-09T10:58:19.775Z,52.29
2019-03-09T11:00:48.387Z,52.77
2019-03-09T11:03:16.952Z,52.87
2019-03-09T11:05:45.486Z,54.02
2019-03-09T11:08:14.115Z,54.24
2019-03-09T11:10:42.610Z,54.78
2019-03-09T11:13:11.078Z,55.00
2019-03-09T11:15:39.572Z,55.31
2019-03-09T11:18:08.035Z,55.19
2019-03-09T11:20:36.533Z,55.42
2019-03-09T11:23:08.267Z,55.88
2019-03-09T11:25:36.811Z,56.67
2019-03-09T11:28:09.945Z,56.39
2019-03-09T11:30:38.558Z,56.51
2019-03-09T11:33:07.061Z,57.74
2019-03-09T11:35:35.723Z,57.93
2019-03-09T11:38:05.971Z,58.64
2019-03-09T11:40:34.552Z,57.73
2019-03-09T11:43:03.959Z,58.00
2019-03-09T11:45:32.424Z,58.26
2019-03-09T11:48:00.961Z,58.41
2019-03-09T11:50:29.428Z,58.43
2019-03-09T11:52:57.893Z,58.30
2019-03-09T11:55:27.789Z,58.48
2019-03-09T11:57:56.330Z,58.65
2019-03-09T12:00:32.418Z,58.70
2019-03-09T12:03:00.955Z,58.68
2019-03-09T12:05:29.265Z,58.77
2019-03-09T12:07:57.730Z,58.77
2019-03-09T12:10:26.264Z,57.58
2019-03-09T12:12:55.110Z,55.85
2019-03-09T12:15:25.609Z,55.24
2019-03-09T12:17:54.115Z,54.24
2019-03-09T12:20:24.295Z,55.99
2019-03-09T12:23:01.243Z,55.40
2019-03-09T12:25:23.050Z,54.24
2019-03-09T12:27:51.551Z,55.29
2019-03-09T12:30:20.774Z,56.83
2019-03-09T12:32:49.443Z,57.95
2019-03-09T12:35:18.013Z,58.91
2019-03-09T12:37:46.880Z,58.95
2019-03-09T12:40:20.114Z,60.51
2019-03-09T12:42:49.046Z,60.55
2019-03-09T12:45:18.022Z,61.07
2019-03-09T12:47:48.024Z,60.94
2019-03-09T12:50:24.337Z,60.53
2019-03-09T12:52:52.808Z,60.16
2019-03-09T12:55:21.348Z,60.61
2019-03-09T12:57:49.837Z,59.84
2019-03-09T13:00:23.964Z,59.36
2019-03-09T13:02:52.466Z,59.36
2019-03-09T13:05:20.963Z,60.07
2019-03-09T13:07:49.436Z,59.73
2019-03-09T13:10:19.605Z,59.43
2019-03-09T13:12:48.139Z,58.96
2019-03-09T13:15:17.270Z,59.23
2019-03-09T13:17:46.087Z,59.24
2019-03-09T13:20:16.110Z,58.76
2019-03-09T13:22:44.766Z,58.47
2019-03-09T13:25:14.012Z,58.26
2019-03-09T13:27:42.512Z,58.06
2019-03-09T13:30:19.517Z,58.50
2019-03-09T13:32:48.108Z,58.26
2019-03-09T13:35:16.570Z,57.33
2019-03-09T13:37:45.273Z,57.48
2019-03-09T13:40:17.291Z,56.70
2019-03-09T13:42:45.749Z,57.16
2019-03-09T13:45:18.908Z,57.39
2019-03-09T13:47:47.378Z,56.89
2019-03-09T13:50:15.917Z,57.52
2019-03-09T13:52:45.042Z,57.09
2019-03-09T13:55:14.367Z,57.62
2019-03-09T13:57:42.923Z,57.23
2019-03-09T14:00:16.518Z,56.51
2019-03-09T14:02:45.164Z,57.06
2019-03-09T14:05:13.890Z,57.40
2019-03-09T14:07:42.467Z,57.10
2019-03-09T14:10:15.520Z,57.76
2019-03-09T14:12:44.244Z,57.06
2019-03-09T14:15:17.040Z,56.06
2019-03-09T14:17:46.726Z,57.01
2019-03-09T14:20:16.383Z,56.29
2019-03-09T14:22:45.019Z,56.81
2019-03-09T14:25:17.019Z,57.03
2019-03-09T14:27:44.866Z,55.95
2019-03-09T14:30:18.473Z,56.31
2019-03-09T14:32:47.343Z,55.49
2019-03-09T14:35:16.002Z,55.03
2019-03-09T14:37:44.605Z,54.55
2019-03-09T14:40:15.390Z,55.24
2019-03-09T14:42:44.364Z,54.62
2019-03-09T14:45:21.536Z,54.63
2019-03-09T14:47:50.015Z,54.12
2019-03-09T14:50:18.555Z,54.02
2019-03-09T14:52:47.041Z,53.23
2019-03-09T14:55:15.691Z,52.88
2019-03-09T14:57:46.039Z,53.15
2019-03-09T15:00:25.942Z,52.47
2019-03-09T15:02:54.534Z,52.87
2019-03-09T15:05:23.251Z,53.13
2019-03-09T15:07:53.117Z,52.34
2019-03-09T15:10:21.698Z,51.95
2019-03-09T15:12:50.297Z,51.64
2019-03-09T15:15:20.110Z,52.47
2019-03-09T15:17:48.590Z,52.50
2019-03-09T15:20:17.625Z,51.98
2019-03-09T15:22:46.204Z,51.90
2019-03-09T15:25:20.153Z,51.49
2019-03-09T15:27:48.879Z,51.03
2019-03-09T15:30:18.449Z,51.25
2019-03-09T15:32:46.936Z,50.95
2019-03-09T15:35:18.575Z,51.32
2019-03-09T15:37:47.315Z,51.60
2019-03-09T15:40:17.770Z,51.37
2019-03-09T15:42:46.246Z,51.86
2019-03-09T15:45:19.535Z,51.70
2019-03-09T15:47:48.284Z,51.57
2019-03-09T15:50:23.987Z,51.37
2019-03-09T15:52:53.517Z,50.68
2019-03-09T15:55:21.981Z,51.08
2019-03-09T15:57:50.464Z,50.53
2019-03-09T16:00:25.183Z,50.71
2019-03-09T16:02:53.936Z,50.35
2019-03-09T16:05:22.489Z,50.06
2019-03-09T16:07:50.982Z,49.81
2019-03-09T16:10:22.838Z,49.89
2019-03-09T16:12:51.310Z,50.66
2019-03-09T16:15:20.071Z,51.07
2019-03-09T16:17:48.637Z,50.98
2019-03-09T16:20:19.788Z,51.78
2019-03-09T16:22:48.259Z,52.01
2019-03-09T16:25:16.830Z,51.35
2019-03-09T16:27:45.324Z,51.71
2019-03-09T16:30:22.034Z,51.71
2019-03-09T16:32:50.761Z,51.71
2019-03-09T16:35:19.352Z,52.87
2019-03-09T16:37:49.180Z,52.91
2019-03-09T16:40:19.976Z,51.58
2019-03-09T16:42:48.483Z,51.19
2019-03-09T16:45:17.325Z,50.36
2019-03-09T16:47:45.855Z,49.62
2019-03-09T16:50:18.279Z,49.84
2019-03-09T16:52:47.398Z,49.36
2019-03-09T16:55:16.232Z,48.61
2019-03-09T16:57:46.061Z,48.75
2019-03-09T17:00:19.507Z,48.92
2019-03-09T17:02:48.286Z,49.82
2019-03-09T17:05:17.089Z,50.08
2019-03-09T17:07:45.636Z,50.53
2019-03-09T17:10:19.351Z,51.05
2019-03-09T17:12:48.041Z,51.11
2019-03-09T17:15:21.289Z,51.02
2019-03-09T17:17:49.840Z,50.80
2019-03-09T17:20:18.794Z,50.45
2019-03-09T17:22:47.288Z,50.64
2019-03-09T17:25:16.105Z,50.47
2019-03-09T17:27:45.384Z,51.28
2019-03-09T17:30:20.817Z,51.48
2019-03-09T17:32:53.447Z,51.21
2019-03-09T17:35:22.178Z,51.34
2019-03-09T17:40:47.807Z,51.16
2019-03-09T17:43:18.036Z,50.90
2019-03-09T17:45:46.504Z,51.47
2019-03-09T17:48:15.046Z,51.06
2019-03-09T17:50:44.932Z,51.87
2019-03-09T17:53:14.138Z,52.64
2019-03-09T17:55:42.664Z,52.89
2019-03-09T17:58:11.132Z,53.53
2019-03-09T18:00:44.242Z,54.51
2019-03-09T18:03:12.713Z,54.94
2019-03-09T18:05:41.204Z,56.24
2019-03-09T18:08:09.671Z,56.32
2019-03-09T18:10:44.032Z,56.18
2019-03-09T18:13:12.498Z,57.48
2019-03-09T18:15:40.974Z,57.27
2019-03-09T18:18:09.445Z,57.04
2019-03-09T18:20:37.946Z,57.51
2019-03-09T18:23:06.482Z,57.21
2019-03-09T18:25:35.047Z,57.54
2019-03-09T18:28:05.952Z,57.36
2019-03-09T18:30:34.421Z,57.42
2019-03-09T18:33:02.895Z,58.48
2019-03-09T18:35:31.382Z,57.90
2019-03-09T18:37:59.880Z,58.08
2019-03-09T18:40:28.395Z,58.10
2019-03-09T18:42:56.863Z,58.39
2019-03-09T18:45:25.801Z,58.10
2019-03-09T18:47:54.400Z,58.33
2019-03-09T18:50:22.892Z,58.26
2019-03-09T18:52:51.355Z,57.95
2019-03-09T18:55:19.853Z,57.58
2019-03-09T18:57:48.315Z,56.67
2019-03-09T19:00:23.131Z,56.66
2019-03-09T19:02:51.666Z,56.88
2019-03-09T19:05:20.333Z,56.64
2019-03-09T19:07:48.800Z,56.82
2019-03-09T19:10:22.752Z,57.07
2019-03-09T19:12:51.217Z,56.60
2019-03-09T19:15:20.050Z,56.95
2019-03-09T19:17:48.528Z,56.67
2019-03-09T19:20:18.431Z,56.75
2019-03-09T19:22:46.909Z,56.60
2019-03-09T19:25:16.319Z,56.55
2019-03-09T19:27:44.794Z,56.47
2019-03-09T19:30:20.514Z,56.67
2019-03-09T19:32:59.605Z,56.09
2019-03-09T19:35:19.251Z,56.39
2019-03-09T19:37:47.717Z,55.15
2019-03-09T19:40:20.500Z,55.58
2019-03-09T19:42:48.963Z,55.47
2019-03-09T19:45:21.304Z,56.39
2019-03-09T19:47:49.843Z,55.74
2019-03-09T19:50:21.372Z,55.95
2019-03-09T19:52:51.550Z,55.34
2019-03-09T19:55:20.020Z,53.94
2019-03-09T19:57:48.560Z,54.77
2019-03-09T20:00:18.579Z,54.44
2019-03-09T20:02:47.065Z,54.34
2019-03-09T20:05:15.918Z,54.44
2019-03-09T20:07:44.396Z,53.65
2019-03-09T20:10:18.085Z,54.02
2019-03-09T20:12:46.617Z,54.06
2019-03-09T20:15:19.239Z,53.63
2019-03-09T20:17:47.732Z,53.54
2019-03-09T20:20:17.035Z,55.35
2019-03-09T20:22:46.388Z,55.86
2019-03-09T20:25:15.024Z,55.86
2019-03-09T20:27:43.533Z,55.78
2019-03-09T20:30:20.956Z,55.81
2019-03-09T20:32:49.504Z,55.75
2019-03-09T20:35:18.165Z,56.45
2019-03-09T20:37:46.739Z,55.33
2019-03-09T20:40:18.600Z,54.74
2019-03-09T20:42:46.383Z,53.86
2019-03-09T20:45:16.336Z,56.48
2019-03-09T20:47:45.786Z,56.55
2019-03-09T20:50:18.725Z,56.03
2019-03-09T20:52:47.375Z,56.15
2019-03-09T20:55:15.939Z,56.91
2019-03-09T20:57:44.474Z,56.26
2019-03-09T21:00:17.564Z,56.77
2019-03-09T21:02:46.028Z,62.22
2019-03-09T21:05:14.609Z,66.29
2019-03-09T21:07:43.132Z,69.95
2019-03-09T21:10:14.662Z,71.51
2019-03-09T21:13:10.273Z,73.64
2019-03-09T21:15:38.763Z,73.25
2019-03-09T21:18:07.256Z,73.67
2019-03-09T21:20:35.730Z,72.90
2019-03-09T21:23:04.296Z,74.41
2019-03-09T21:25:32.762Z,72.74
2019-03-09T21:28:01.406Z,72.81
2019-03-09T21:30:29.949Z,72.29
2019-03-09T21:32:58.441Z,71.19
2019-03-09T21:35:26.967Z,70.72
2019-03-09T21:37:55.474Z,72.45
2019-03-09T21:40:23.970Z,72.39
2019-03-09T21:42:52.497Z,72.72
2019-03-09T21:45:21.235Z,72.83
2019-03-09T21:47:49.707Z,74.04
2019-03-09T21:50:18.691Z,74.17
2019-03-09T21:52:47.155Z,74.54
2019-03-09T21:55:16.848Z,73.45
2019-03-09T21:57:46.994Z,74.98
2019-03-09T22:00:20.560Z,74.13
2019-03-09T22:02:50.288Z,74.33
2019-03-09T22:05:19.172Z,75.49
2019-03-09T22:07:47.738Z,74.89
2019-03-09T22:10:16.276Z,76.26
2019-03-09T22:12:44.797Z,76.54
2019-03-09T22:15:17.668Z,76.92
2019-03-09T22:17:46.160Z,77.03
2019-03-09T22:20:15.167Z,77.01
2019-03-09T22:22:44.080Z,76.18
2019-03-09T22:25:13.991Z,76.06
2019-03-09T22:27:42.638Z,75.44
2019-03-09T22:30:16.403Z,75.11
2019-03-09T22:32:44.886Z,75.01
2019-03-09T22:35:14.201Z,74.69
2019-03-09T22:37:42.697Z,73.73
2019-03-09T22:40:18.339Z,74.00
2019-03-09T22:42:46.887Z,74.10
2019-03-09T22:45:16.094Z,74.14
2019-03-09T22:47:44.895Z,73.90
2019-03-09T22:50:21.758Z,74.68
2019-03-09T22:52:50.252Z,74.04
2019-03-09T22:55:18.739Z,73.48
2019-03-09T22:57:47.209Z,72.37
2019-03-09T23:00:24.555Z,71.61
2019-03-09T23:02:53.290Z,70.87
2019-03-09T23:05:21.855Z,70.81
2019-03-09T23:07:50.319Z,70.54
2019-03-09T23:10:28.416Z,69.31
2019-03-09T23:12:56.998Z,68.26
2019-03-09T23:15:25.543Z,68.25
2019-03-09T23:17:54.041Z,67.76
2019-03-09T23:20:22.645Z,66.79
2019-03-09T23:22:51.117Z,65.69
2019-03-09T23:25:19.598Z,66.28
2019-03-09T23:27:48.172Z,66.03
2019-03-09T23:30:21.850Z,65.73
2019-03-09T23:32:50.638Z,64.76
2019-03-09T23:35:19.117Z,64.42
2019-03-09T23:37:47.995Z,63.73
2019-03-09T23:40:18.501Z,63.31
2019-03-09T23:42:46.991Z,62.01
2019-03-09T23:45:20.685Z,61.88
2019-03-09T23:47:49.356Z,61.52
2019-03-09T23:50:18.671Z,59.38
2019-03-09T23:52:47.384Z,61.82
2019-03-09T23:55:22.102Z,62.23
2019-03-09T23:57:47.968Z,62.27
